sensor_id;sensor_type;location;lat;lon;timestamp;P1;durP1;ratioP1;P2;durP2;ratioP2
46563;SDS011;32291;52.010;4.446;2023-04-03T00:00:20;2.30;;;1.60;;
46563;SDS011;32291;52.010;4.446;2023-04-03T00:01:22;2.28;;;1.83;;
46563;SDS011;32291;52.010;4.446;2023-04-03T00:02:24;3.13;;;1.80;;
46563;SDS011;32291;52.010;4.446;2023-04-03T00:03:26;3.03;;;1.50;;
46563;SDS011;32291;52.010;4.446;2023-04-03T00:04:29;2.15;;;1.50;;
46563;SDS011;32291;52.010;4.446;2023-04-03T00:05:30;2.22;;;1.52;;
46563;SDS011;32291;52.010;4.446;2023-04-03T00:06:32;2.90;;;1.55;;
46563;SDS011;32291;52.010;4.446;2023-04-03T00:07:34;1.88;;;1.67;;
46563;SDS011;32291;52.010;4.446;2023-04-03T00:08:36;1.88;;;1.70;;
46563;SDS011;32291;52.010;4.446;2023-04-03T00:09:39;2.53;;;1.65;;
46563;SDS011;32291;52.010;4.446;2023-04-03T00:10:41;1.90;;;1.75;;
46563;SDS011;32291;52.010;4.446;2023-04-03T00:11:43;3.78;;;2.15;;
46563;SDS011;32291;52.010;4.446;2023-04-03T00:12:46;2.88;;;2.15;;
46563;SDS011;32291;52.010;4.446;2023-04-03T00:13:48;1.95;;;1.60;;
46563;SDS011;32291;52.010;4.446;2023-04-03T00:14:49;3.70;;;1.70;;
46563;SDS011;32291;52.010;4.446;2023-04-03T00:15:51;1.70;;;1.60;;
46563;SDS011;32291;52.010;4.446;2023-04-03T00:16:54;3.35;;;1.80;;
46563;SDS011;32291;52.010;4.446;2023-04-03T00:17:56;3.15;;;1.80;;
46563;SDS011;32291;52.010;4.446;2023-04-03T00:18:58;2.78;;;1.73;;
46563;SDS011;32291;52.010;4.446;2023-04-03T00:19:59;2.10;;;1.83;;
46563;SDS011;32291;52.010;4.446;2023-04-03T00:21:02;2.70;;;1.73;;
46563;SDS011;32291;52.010;4.446;2023-04-03T00:22:05;2.83;;;2.03;;
46563;SDS011;32291;52.010;4.446;2023-04-03T00:23:07;1.90;;;1.80;;
46563;SDS011;32291;52.010;4.446;2023-04-03T00:24:09;2.15;;;1.63;;
46563;SDS011;32291;52.010;4.446;2023-04-03T00:25:11;2.20;;;1.77;;
46563;SDS011;32291;52.010;4.446;2023-04-03T00:26:13;2.95;;;1.92;;
46563;SDS011;32291;52.010;4.446;2023-04-03T00:27:15;1.60;;;1.50;;
46563;SDS011;32291;52.010;4.446;2023-04-03T00:28:16;5.22;;;1.80;;
46563;SDS011;32291;52.010;4.446;2023-04-03T00:29:18;3.03;;;2.03;;
46563;SDS011;32291;52.010;4.446;2023-04-03T00:30:21;2.05;;;1.85;;
46563;SDS011;32291;52.010;4.446;2023-04-03T00:31:23;3.08;;;1.83;;
46563;SDS011;32291;52.010;4.446;2023-04-03T00:32:24;2.83;;;2.05;;
46563;SDS011;32291;52.010;4.446;2023-04-03T00:33:26;3.17;;;2.03;;
46563;SDS011;32291;52.010;4.446;2023-04-03T00:34:28;2.28;;;1.85;;
46563;SDS011;32291;52.010;4.446;2023-04-03T00:35:29;2.95;;;1.80;;
46563;SDS011;32291;52.010;4.446;2023-04-03T00:36:31;2.88;;;1.73;;
46563;SDS011;32291;52.010;4.446;2023-04-03T00:37:33;1.83;;;1.65;;
46563;SDS011;32291;52.010;4.446;2023-04-03T00:38:36;2.00;;;1.70;;
46563;SDS011;32291;52.010;4.446;2023-04-03T00:39:38;2.83;;;1.70;;
46563;SDS011;32291;52.010;4.446;2023-04-03T00:40:42;3.03;;;1.98;;
46563;SDS011;32291;52.010;4.446;2023-04-03T00:41:46;4.65;;;1.92;;
46563;SDS011;32291;52.010;4.446;2023-04-03T00:42:48;2.85;;;2.00;;
46563;SDS011;32291;52.010;4.446;2023-04-03T00:43:56;2.70;;;2.00;;
46563;SDS011;32291;52.010;4.446;2023-04-03T00:46:01;2.72;;;1.80;;
46563;SDS011;32291;52.010;4.446;2023-04-03T00:47:05;2.72;;;2.17;;
46563;SDS011;32291;52.010;4.446;2023-04-03T00:48:13;3.35;;;1.80;;
46563;SDS011;32291;52.010;4.446;2023-04-03T00:49:22;3.22;;;2.80;;
46563;SDS011;32291;52.010;4.446;2023-04-03T00:50:24;2.78;;;1.90;;
46563;SDS011;32291;52.010;4.446;2023-04-03T00:51:29;1.90;;;1.77;;
46563;SDS011;32291;52.010;4.446;2023-04-03T00:52:31;2.72;;;1.83;;
46563;SDS011;32291;52.010;4.446;2023-04-03T00:53:34;2.58;;;2.00;;
46563;SDS011;32291;52.010;4.446;2023-04-03T00:54:45;3.33;;;2.20;;
46563;SDS011;32291;52.010;4.446;2023-04-03T00:55:51;4.28;;;2.28;;
46563;SDS011;32291;52.010;4.446;2023-04-03T00:56:56;2.67;;;2.08;;
46563;SDS011;32291;52.010;4.446;2023-04-03T00:57:59;3.13;;;2.13;;
46563;SDS011;32291;52.010;4.446;2023-04-03T00:59:07;2.50;;;2.30;;
46563;SDS011;32291;52.010;4.446;2023-04-03T01:00:16;3.15;;;2.00;;
46563;SDS011;32291;52.010;4.446;2023-04-03T01:01:24;2.85;;;1.90;;
46563;SDS011;32291;52.010;4.446;2023-04-03T01:02:29;3.03;;;2.17;;
46563;SDS011;32291;52.010;4.446;2023-04-03T01:03:31;3.22;;;2.08;;
46563;SDS011;32291;52.010;4.446;2023-04-03T01:04:35;2.97;;;2.08;;
46563;SDS011;32291;52.010;4.446;2023-04-03T01:05:40;2.85;;;2.50;;
46563;SDS011;32291;52.010;4.446;2023-04-03T01:06:42;2.60;;;2.20;;
46563;SDS011;32291;52.010;4.446;2023-04-03T01:07:43;3.08;;;2.03;;
46563;SDS011;32291;52.010;4.446;2023-04-03T01:08:48;3.65;;;1.85;;
46563;SDS011;32291;52.010;4.446;2023-04-03T01:09:51;3.30;;;2.53;;
46563;SDS011;32291;52.010;4.446;2023-04-03T01:11:00;3.08;;;2.17;;
46563;SDS011;32291;52.010;4.446;2023-04-03T01:12:18;3.03;;;2.42;;
46563;SDS011;32291;52.010;4.446;2023-04-03T01:13:26;2.53;;;2.25;;
46563;SDS011;32291;52.010;4.446;2023-04-03T01:14:31;4.32;;;2.42;;
46563;SDS011;32291;52.010;4.446;2023-04-03T01:15:33;2.45;;;2.20;;
46563;SDS011;32291;52.010;4.446;2023-04-03T01:16:36;4.60;;;2.33;;
46563;SDS011;32291;52.010;4.446;2023-04-03T01:17:45;5.05;;;2.95;;
46563;SDS011;32291;52.010;4.446;2023-04-03T01:18:54;4.35;;;2.58;;
46563;SDS011;32291;52.010;4.446;2023-04-03T01:23:25;3.90;;;2.30;;
46563;SDS011;32291;52.010;4.446;2023-04-03T01:25:13;2.95;;;2.47;;
46563;SDS011;32291;52.010;4.446;2023-04-03T01:26:15;3.15;;;2.38;;
46563;SDS011;32291;52.010;4.446;2023-04-03T01:27:17;2.65;;;2.13;;
46563;SDS011;32291;52.010;4.446;2023-04-03T01:29:29;4.78;;;2.50;;
46563;SDS011;32291;52.010;4.446;2023-04-03T01:30:33;2.88;;;2.35;;
46563;SDS011;32291;52.010;4.446;2023-04-03T01:31:50;2.40;;;2.00;;
46563;SDS011;32291;52.010;4.446;2023-04-03T01:32:58;4.43;;;2.40;;
46563;SDS011;32291;52.010;4.446;2023-04-03T01:34:00;2.25;;;2.05;;
46563;SDS011;32291;52.010;4.446;2023-04-03T01:35:04;3.92;;;2.60;;
46563;SDS011;32291;52.010;4.446;2023-04-03T01:36:15;2.40;;;2.20;;
46563;SDS011;32291;52.010;4.446;2023-04-03T01:37:25;3.50;;;2.70;;
46563;SDS011;32291;52.010;4.446;2023-04-03T01:38:26;3.75;;;2.30;;
46563;SDS011;32291;52.010;4.446;2023-04-03T01:39:28;3.40;;;2.28;;
46563;SDS011;32291;52.010;4.446;2023-04-03T01:40:30;3.70;;;2.42;;
46563;SDS011;32291;52.010;4.446;2023-04-03T01:41:31;3.20;;;2.03;;
46563;SDS011;32291;52.010;4.446;2023-04-03T01:42:34;3.22;;;2.58;;
46563;SDS011;32291;52.010;4.446;2023-04-03T01:43:36;3.85;;;2.53;;
46563;SDS011;32291;52.010;4.446;2023-04-03T01:44:37;2.83;;;2.20;;
46563;SDS011;32291;52.010;4.446;2023-04-03T01:45:39;3.28;;;2.33;;
46563;SDS011;32291;52.010;4.446;2023-04-03T01:46:41;3.15;;;2.15;;
46563;SDS011;32291;52.010;4.446;2023-04-03T01:47:43;3.20;;;2.70;;
46563;SDS011;32291;52.010;4.446;2023-04-03T01:48:44;5.25;;;2.33;;
46563;SDS011;32291;52.010;4.446;2023-04-03T01:49:47;4.65;;;2.60;;
46563;SDS011;32291;52.010;4.446;2023-04-03T01:50:48;2.80;;;2.20;;
46563;SDS011;32291;52.010;4.446;2023-04-03T01:51:50;3.35;;;2.05;;
46563;SDS011;32291;52.010;4.446;2023-04-03T01:52:52;4.70;;;2.13;;
46563;SDS011;32291;52.010;4.446;2023-04-03T01:53:53;3.15;;;2.40;;
46563;SDS011;32291;52.010;4.446;2023-04-03T01:54:55;2.83;;;2.15;;
46563;SDS011;32291;52.010;4.446;2023-04-03T01:55:57;3.17;;;2.20;;
46563;SDS011;32291;52.010;4.446;2023-04-03T01:56:58;2.83;;;2.53;;
46563;SDS011;32291;52.010;4.446;2023-04-03T01:58:00;2.53;;;2.33;;
46563;SDS011;32291;52.010;4.446;2023-04-03T01:59:02;3.10;;;2.58;;
46563;SDS011;32291;52.010;4.446;2023-04-03T02:00:07;3.10;;;2.33;;
46563;SDS011;32291;52.010;4.446;2023-04-03T02:01:10;3.15;;;2.38;;
46563;SDS011;32291;52.010;4.446;2023-04-03T02:02:12;2.40;;;2.20;;
46563;SDS011;32291;52.010;4.446;2023-04-03T02:03:15;2.85;;;2.38;;
46563;SDS011;32291;52.010;4.446;2023-04-03T02:04:16;3.50;;;2.47;;
46563;SDS011;32291;52.010;4.446;2023-04-03T02:05:18;2.30;;;2.10;;
46563;SDS011;32291;52.010;4.446;2023-04-03T02:06:20;2.95;;;2.05;;
46563;SDS011;32291;52.010;4.446;2023-04-03T02:07:22;5.38;;;2.50;;
46563;SDS011;32291;52.010;4.446;2023-04-03T02:08:24;4.60;;;2.40;;
46563;SDS011;32291;52.010;4.446;2023-04-03T02:09:26;3.78;;;2.22;;
46563;SDS011;32291;52.010;4.446;2023-04-03T02:10:28;3.90;;;2.42;;
46563;SDS011;32291;52.010;4.446;2023-04-03T02:11:30;2.95;;;2.35;;
46563;SDS011;32291;52.010;4.446;2023-04-03T02:12:32;3.53;;;2.83;;
46563;SDS011;32291;52.010;4.446;2023-04-03T02:13:34;3.55;;;2.33;;
46563;SDS011;32291;52.010;4.446;2023-04-03T02:14:36;4.47;;;2.58;;
46563;SDS011;32291;52.010;4.446;2023-04-03T02:15:38;4.68;;;2.58;;
46563;SDS011;32291;52.010;4.446;2023-04-03T02:16:40;3.90;;;2.28;;
46563;SDS011;32291;52.010;4.446;2023-04-03T02:17:41;5.35;;;2.28;;
46563;SDS011;32291;52.010;4.446;2023-04-03T02:18:43;2.47;;;2.28;;
46563;SDS011;32291;52.010;4.446;2023-04-03T02:19:45;3.17;;;2.05;;
46563;SDS011;32291;52.010;4.446;2023-04-03T02:20:47;4.35;;;2.90;;
46563;SDS011;32291;52.010;4.446;2023-04-03T02:21:49;3.65;;;2.42;;
46563;SDS011;32291;52.010;4.446;2023-04-03T02:22:51;6.13;;;2.88;;
46563;SDS011;32291;52.010;4.446;2023-04-03T02:23:52;3.78;;;2.70;;
46563;SDS011;32291;52.010;4.446;2023-04-03T02:24:54;2.80;;;2.40;;
46563;SDS011;32291;52.010;4.446;2023-04-03T02:27:10;3.72;;;2.42;;
46563;SDS011;32291;52.010;4.446;2023-04-03T02:28:12;2.95;;;2.70;;
46563;SDS011;32291;52.010;4.446;2023-04-03T02:29:14;3.25;;;2.75;;
46563;SDS011;32291;52.010;4.446;2023-04-03T02:30:15;2.90;;;2.70;;
46563;SDS011;32291;52.010;4.446;2023-04-03T02:31:17;4.38;;;2.70;;
46563;SDS011;32291;52.010;4.446;2023-04-03T02:32:19;3.03;;;2.35;;
46563;SDS011;32291;52.010;4.446;2023-04-03T02:33:20;3.88;;;2.30;;
46563;SDS011;32291;52.010;4.446;2023-04-03T02:34:22;3.35;;;2.50;;
46563;SDS011;32291;52.010;4.446;2023-04-03T02:35:24;2.60;;;2.35;;
46563;SDS011;32291;52.010;4.446;2023-04-03T02:36:26;4.05;;;2.83;;
46563;SDS011;32291;52.010;4.446;2023-04-03T02:37:28;2.60;;;2.40;;
46563;SDS011;32291;52.010;4.446;2023-04-03T02:38:31;3.13;;;2.83;;
46563;SDS011;32291;52.010;4.446;2023-04-03T02:39:34;2.92;;;2.53;;
46563;SDS011;32291;52.010;4.446;2023-04-03T02:40:36;3.42;;;2.97;;
46563;SDS011;32291;52.010;4.446;2023-04-03T02:41:38;3.05;;;2.60;;
46563;SDS011;32291;52.010;4.446;2023-04-03T02:42:40;3.80;;;2.55;;
46563;SDS011;32291;52.010;4.446;2023-04-03T02:43:41;3.92;;;2.80;;
46563;SDS011;32291;52.010;4.446;2023-04-03T02:44:43;3.50;;;3.15;;
46563;SDS011;32291;52.010;4.446;2023-04-03T02:45:45;4.40;;;3.22;;
46563;SDS011;32291;52.010;4.446;2023-04-03T02:46:47;3.42;;;2.65;;
46563;SDS011;32291;52.010;4.446;2023-04-03T02:47:49;3.38;;;2.97;;
46563;SDS011;32291;52.010;4.446;2023-04-03T02:48:51;3.20;;;2.63;;
46563;SDS011;32291;52.010;4.446;2023-04-03T02:49:53;3.45;;;2.65;;
46563;SDS011;32291;52.010;4.446;2023-04-03T02:50:55;3.33;;;2.75;;
46563;SDS011;32291;52.010;4.446;2023-04-03T02:51:57;3.42;;;2.67;;
46563;SDS011;32291;52.010;4.446;2023-04-03T02:52:58;2.95;;;2.55;;
46563;SDS011;32291;52.010;4.446;2023-04-03T02:54:00;4.05;;;2.50;;
46563;SDS011;32291;52.010;4.446;2023-04-03T02:55:02;3.10;;;2.55;;
46563;SDS011;32291;52.010;4.446;2023-04-03T02:56:04;3.45;;;3.15;;
46563;SDS011;32291;52.010;4.446;2023-04-03T02:57:06;2.80;;;2.60;;
46563;SDS011;32291;52.010;4.446;2023-04-03T02:58:11;4.57;;;2.70;;
46563;SDS011;32291;52.010;4.446;2023-04-03T02:59:13;3.28;;;2.97;;
46563;SDS011;32291;52.010;4.446;2023-04-03T03:00:15;2.78;;;2.50;;
46563;SDS011;32291;52.010;4.446;2023-04-03T03:01:17;5.07;;;3.05;;
46563;SDS011;32291;52.010;4.446;2023-04-03T03:02:19;2.88;;;2.58;;
46563;SDS011;32291;52.010;4.446;2023-04-03T03:03:21;3.63;;;2.45;;
46563;SDS011;32291;52.010;4.446;2023-04-03T03:04:23;3.20;;;2.30;;
46563;SDS011;32291;52.010;4.446;2023-04-03T03:05:25;3.50;;;2.40;;
46563;SDS011;32291;52.010;4.446;2023-04-03T03:06:28;2.80;;;2.58;;
46563;SDS011;32291;52.010;4.446;2023-04-03T03:07:29;3.05;;;2.33;;
46563;SDS011;32291;52.010;4.446;2023-04-03T03:08:32;3.60;;;2.70;;
46563;SDS011;32291;52.010;4.446;2023-04-03T03:09:34;3.17;;;2.22;;
46563;SDS011;32291;52.010;4.446;2023-04-03T03:10:36;3.30;;;2.53;;
46563;SDS011;32291;52.010;4.446;2023-04-03T03:11:37;6.75;;;3.35;;
46563;SDS011;32291;52.010;4.446;2023-04-03T03:12:39;4.30;;;2.42;;
46563;SDS011;32291;52.010;4.446;2023-04-03T03:13:41;2.70;;;2.17;;
46563;SDS011;32291;52.010;4.446;2023-04-03T03:14:43;6.07;;;2.95;;
46563;SDS011;32291;52.010;4.446;2023-04-03T03:15:45;3.83;;;2.53;;
46563;SDS011;32291;52.010;4.446;2023-04-03T03:16:47;4.22;;;2.70;;
46563;SDS011;32291;52.010;4.446;2023-04-03T03:17:49;3.60;;;2.80;;
46563;SDS011;32291;52.010;4.446;2023-04-03T03:18:51;3.72;;;3.15;;
46563;SDS011;32291;52.010;4.446;2023-04-03T03:19:52;4.38;;;2.50;;
46563;SDS011;32291;52.010;4.446;2023-04-03T03:20:55;2.70;;;2.38;;
46563;SDS011;32291;52.010;4.446;2023-04-03T03:21:59;3.78;;;2.10;;
46563;SDS011;32291;52.010;4.446;2023-04-03T03:23:01;4.72;;;2.47;;
46563;SDS011;32291;52.010;4.446;2023-04-03T03:24:03;4.10;;;2.90;;
46563;SDS011;32291;52.010;4.446;2023-04-03T03:25:05;2.58;;;2.28;;
46563;SDS011;32291;52.010;4.446;2023-04-03T03:26:07;2.85;;;2.33;;
46563;SDS011;32291;52.010;4.446;2023-04-03T03:27:11;2.80;;;2.40;;
46563;SDS011;32291;52.010;4.446;2023-04-03T03:28:12;2.50;;;2.08;;
46563;SDS011;32291;52.010;4.446;2023-04-03T03:29:14;5.00;;;2.72;;
46563;SDS011;32291;52.010;4.446;2023-04-03T03:30:16;2.67;;;2.47;;
46563;SDS011;32291;52.010;4.446;2023-04-03T03:31:18;4.15;;;2.90;;
46563;SDS011;32291;52.010;4.446;2023-04-03T03:32:20;5.30;;;2.58;;
46563;SDS011;32291;52.010;4.446;2023-04-03T03:33:22;4.63;;;2.83;;
46563;SDS011;32291;52.010;4.446;2023-04-03T03:34:24;5.05;;;2.60;;
46563;SDS011;32291;52.010;4.446;2023-04-03T03:35:25;3.92;;;2.88;;
46563;SDS011;32291;52.010;4.446;2023-04-03T03:36:27;2.80;;;2.60;;
46563;SDS011;32291;52.010;4.446;2023-04-03T03:37:29;3.35;;;2.72;;
46563;SDS011;32291;52.010;4.446;2023-04-03T03:38:30;3.88;;;2.55;;
46563;SDS011;32291;52.010;4.446;2023-04-03T03:39:32;3.42;;;2.42;;
46563;SDS011;32291;52.010;4.446;2023-04-03T03:40:34;3.50;;;2.47;;
46563;SDS011;32291;52.010;4.446;2023-04-03T03:41:35;5.22;;;2.67;;
46563;SDS011;32291;52.010;4.446;2023-04-03T03:42:37;4.30;;;2.45;;
46563;SDS011;32291;52.010;4.446;2023-04-03T03:43:39;4.10;;;2.58;;
46563;SDS011;32291;52.010;4.446;2023-04-03T03:44:42;8.27;;;2.92;;
46563;SDS011;32291;52.010;4.446;2023-04-03T03:45:43;3.88;;;2.45;;
46563;SDS011;32291;52.010;4.446;2023-04-03T03:46:46;3.63;;;2.70;;
46563;SDS011;32291;52.010;4.446;2023-04-03T03:47:48;4.10;;;2.63;;
46563;SDS011;32291;52.010;4.446;2023-04-03T03:48:49;3.30;;;2.30;;
46563;SDS011;32291;52.010;4.446;2023-04-03T03:49:51;3.53;;;2.47;;
46563;SDS011;32291;52.010;4.446;2023-04-03T03:50:53;3.45;;;2.53;;
46563;SDS011;32291;52.010;4.446;2023-04-03T03:51:54;4.15;;;2.55;;
46563;SDS011;32291;52.010;4.446;2023-04-03T03:52:56;3.17;;;2.60;;
46563;SDS011;32291;52.010;4.446;2023-04-03T03:53:58;4.38;;;2.90;;
46563;SDS011;32291;52.010;4.446;2023-04-03T03:55:00;3.28;;;2.70;;
46563;SDS011;32291;52.010;4.446;2023-04-03T03:56:01;3.30;;;2.85;;
46563;SDS011;32291;52.010;4.446;2023-04-03T03:57:05;3.47;;;2.58;;
46563;SDS011;32291;52.010;4.446;2023-04-03T03:58:07;3.28;;;2.70;;
46563;SDS011;32291;52.010;4.446;2023-04-03T03:59:11;3.70;;;2.55;;
46563;SDS011;32291;52.010;4.446;2023-04-03T04:00:13;3.60;;;2.83;;
46563;SDS011;32291;52.010;4.446;2023-04-03T04:01:15;5.05;;;3.00;;
46563;SDS011;32291;52.010;4.446;2023-04-03T04:02:17;3.65;;;2.47;;
46563;SDS011;32291;52.010;4.446;2023-04-03T04:03:19;4.03;;;2.65;;
46563;SDS011;32291;52.010;4.446;2023-04-03T04:04:21;4.10;;;2.60;;
46563;SDS011;32291;52.010;4.446;2023-04-03T04:05:23;4.50;;;3.17;;
46563;SDS011;32291;52.010;4.446;2023-04-03T04:06:25;4.57;;;3.25;;
46563;SDS011;32291;52.010;4.446;2023-04-03T04:07:27;4.32;;;2.50;;
46563;SDS011;32291;52.010;4.446;2023-04-03T04:08:30;3.20;;;2.78;;
46563;SDS011;32291;52.010;4.446;2023-04-03T04:09:32;6.05;;;3.17;;
46563;SDS011;32291;52.010;4.446;2023-04-03T04:10:33;3.65;;;2.88;;
46563;SDS011;32291;52.010;4.446;2023-04-03T04:11:38;4.68;;;2.92;;
46563;SDS011;32291;52.010;4.446;2023-04-03T04:12:41;6.68;;;2.90;;
46563;SDS011;32291;52.010;4.446;2023-04-03T04:13:42;4.03;;;2.63;;
46563;SDS011;32291;52.010;4.446;2023-04-03T04:14:44;3.75;;;2.90;;
46563;SDS011;32291;52.010;4.446;2023-04-03T04:15:47;4.47;;;2.80;;
46563;SDS011;32291;52.010;4.446;2023-04-03T04:16:49;3.47;;;2.80;;
46563;SDS011;32291;52.010;4.446;2023-04-03T04:17:51;4.03;;;3.10;;
46563;SDS011;32291;52.010;4.446;2023-04-03T04:18:52;4.18;;;3.13;;
46563;SDS011;32291;52.010;4.446;2023-04-03T04:19:54;4.78;;;3.38;;
46563;SDS011;32291;52.010;4.446;2023-04-03T04:20:55;4.93;;;2.90;;
46563;SDS011;32291;52.010;4.446;2023-04-03T04:21:57;4.20;;;3.22;;
46563;SDS011;32291;52.010;4.446;2023-04-03T04:22:59;6.35;;;2.85;;
46563;SDS011;32291;52.010;4.446;2023-04-03T04:24:01;3.38;;;3.08;;
46563;SDS011;32291;52.010;4.446;2023-04-03T04:25:03;5.28;;;2.70;;
46563;SDS011;32291;52.010;4.446;2023-04-03T04:26:05;4.15;;;2.97;;
46563;SDS011;32291;52.010;4.446;2023-04-03T04:27:07;3.63;;;3.10;;
46563;SDS011;32291;52.010;4.446;2023-04-03T04:28:08;3.03;;;2.55;;
46563;SDS011;32291;52.010;4.446;2023-04-03T04:29:10;4.82;;;3.20;;
46563;SDS011;32291;52.010;4.446;2023-04-03T04:30:12;3.28;;;2.75;;
46563;SDS011;32291;52.010;4.446;2023-04-03T04:31:15;4.38;;;3.17;;
46563;SDS011;32291;52.010;4.446;2023-04-03T04:32:16;5.07;;;3.20;;
46563;SDS011;32291;52.010;4.446;2023-04-03T04:33:18;4.13;;;3.00;;
46563;SDS011;32291;52.010;4.446;2023-04-03T04:34:20;3.97;;;3.05;;
46563;SDS011;32291;52.010;4.446;2023-04-03T04:35:22;4.30;;;3.22;;
46563;SDS011;32291;52.010;4.446;2023-04-03T04:36:24;4.32;;;3.08;;
46563;SDS011;32291;52.010;4.446;2023-04-03T04:37:25;3.42;;;2.88;;
46563;SDS011;32291;52.010;4.446;2023-04-03T04:38:27;3.60;;;2.95;;
46563;SDS011;32291;52.010;4.446;2023-04-03T04:39:28;6.45;;;2.80;;
46563;SDS011;32291;52.010;4.446;2023-04-03T04:40:30;5.68;;;3.70;;
46563;SDS011;32291;52.010;4.446;2023-04-03T04:41:32;5.55;;;3.60;;
46563;SDS011;32291;52.010;4.446;2023-04-03T04:42:35;5.15;;;3.47;;
46563;SDS011;32291;52.010;4.446;2023-04-03T04:43:37;4.18;;;3.25;;
46563;SDS011;32291;52.010;4.446;2023-04-03T04:44:39;6.57;;;3.63;;
46563;SDS011;32291;52.010;4.446;2023-04-03T04:45:41;4.93;;;3.00;;
46563;SDS011;32291;52.010;4.446;2023-04-03T04:46:42;4.40;;;3.28;;
46563;SDS011;32291;52.010;4.446;2023-04-03T04:47:44;4.20;;;2.80;;
46563;SDS011;32291;52.010;4.446;2023-04-03T04:48:46;5.78;;;3.47;;
46563;SDS011;32291;52.010;4.446;2023-04-03T04:49:49;6.80;;;3.20;;
46563;SDS011;32291;52.010;4.446;2023-04-03T04:50:51;5.15;;;3.50;;
46563;SDS011;32291;52.010;4.446;2023-04-03T04:51:52;5.40;;;3.78;;
46563;SDS011;32291;52.010;4.446;2023-04-03T04:52:54;4.60;;;3.58;;
46563;SDS011;32291;52.010;4.446;2023-04-03T04:53:55;3.83;;;2.88;;
46563;SDS011;32291;52.010;4.446;2023-04-03T04:54:57;5.55;;;3.30;;
46563;SDS011;32291;52.010;4.446;2023-04-03T04:55:59;4.43;;;3.13;;
46563;SDS011;32291;52.010;4.446;2023-04-03T04:57:01;4.85;;;2.95;;
46563;SDS011;32291;52.010;4.446;2023-04-03T04:58:02;4.95;;;3.60;;
46563;SDS011;32291;52.010;4.446;2023-04-03T04:59:04;6.70;;;3.65;;
46563;SDS011;32291;52.010;4.446;2023-04-03T05:00:05;4.78;;;3.80;;
46563;SDS011;32291;52.010;4.446;2023-04-03T05:01:08;4.65;;;3.35;;
46563;SDS011;32291;52.010;4.446;2023-04-03T05:02:12;4.38;;;3.53;;
46563;SDS011;32291;52.010;4.446;2023-04-03T05:03:13;4.65;;;3.25;;
46563;SDS011;32291;52.010;4.446;2023-04-03T05:04:16;4.32;;;3.40;;
46563;SDS011;32291;52.010;4.446;2023-04-03T05:05:18;5.78;;;3.63;;
46563;SDS011;32291;52.010;4.446;2023-04-03T05:06:19;7.95;;;3.88;;
46563;SDS011;32291;52.010;4.446;2023-04-03T05:07:21;6.95;;;4.13;;
46563;SDS011;32291;52.010;4.446;2023-04-03T05:08:23;9.40;;;5.43;;
46563;SDS011;32291;52.010;4.446;2023-04-03T05:09:25;10.98;;;4.68;;
46563;SDS011;32291;52.010;4.446;2023-04-03T05:10:27;9.13;;;5.25;;
46563;SDS011;32291;52.010;4.446;2023-04-03T05:11:29;7.05;;;5.10;;
46563;SDS011;32291;52.010;4.446;2023-04-03T05:12:31;7.97;;;5.43;;
46563;SDS011;32291;52.010;4.446;2023-04-03T05:13:33;7.63;;;5.25;;
46563;SDS011;32291;52.010;4.446;2023-04-03T05:14:35;8.07;;;4.72;;
46563;SDS011;32291;52.010;4.446;2023-04-03T05:15:36;7.32;;;4.75;;
46563;SDS011;32291;52.010;4.446;2023-04-03T05:16:38;6.38;;;4.60;;
46563;SDS011;32291;52.010;4.446;2023-04-03T05:17:40;9.77;;;5.70;;
46563;SDS011;32291;52.010;4.446;2023-04-03T05:18:41;5.47;;;4.55;;
46563;SDS011;32291;52.010;4.446;2023-04-03T05:19:43;5.07;;;4.55;;
46563;SDS011;32291;52.010;4.446;2023-04-03T05:20:44;4.88;;;4.20;;
46563;SDS011;32291;52.010;4.446;2023-04-03T05:21:50;4.95;;;4.43;;
46563;SDS011;32291;52.010;4.446;2023-04-03T05:22:52;6.03;;;4.55;;
46563;SDS011;32291;52.010;4.446;2023-04-03T05:23:54;6.53;;;4.55;;
46563;SDS011;32291;52.010;4.446;2023-04-03T05:24:56;4.50;;;3.85;;
46563;SDS011;32291;52.010;4.446;2023-04-03T05:25:57;5.47;;;4.18;;
46563;SDS011;32291;52.010;4.446;2023-04-03T05:27:00;8.27;;;4.47;;
46563;SDS011;32291;52.010;4.446;2023-04-03T05:28:01;4.40;;;3.95;;
46563;SDS011;32291;52.010;4.446;2023-04-03T05:29:03;5.65;;;3.92;;
46563;SDS011;32291;52.010;4.446;2023-04-03T05:30:05;4.72;;;3.67;;
46563;SDS011;32291;52.010;4.446;2023-04-03T05:31:07;5.05;;;4.00;;
46563;SDS011;32291;52.010;4.446;2023-04-03T05:32:10;5.70;;;4.05;;
46563;SDS011;32291;52.010;4.446;2023-04-03T05:33:12;5.18;;;3.97;;
46563;SDS011;32291;52.010;4.446;2023-04-03T05:34:15;5.80;;;4.35;;
46563;SDS011;32291;52.010;4.446;2023-04-03T05:35:17;6.13;;;3.40;;
46563;SDS011;32291;52.010;4.446;2023-04-03T05:36:18;7.15;;;4.20;;
46563;SDS011;32291;52.010;4.446;2023-04-03T05:37:20;6.90;;;4.13;;
46563;SDS011;32291;52.010;4.446;2023-04-03T05:38:22;4.10;;;3.60;;
46563;SDS011;32291;52.010;4.446;2023-04-03T05:39:23;7.88;;;4.05;;
46563;SDS011;32291;52.010;4.446;2023-04-03T05:40:26;5.72;;;4.28;;
46563;SDS011;32291;52.010;4.446;2023-04-03T05:41:28;4.95;;;3.80;;
46563;SDS011;32291;52.010;4.446;2023-04-03T05:42:30;3.92;;;3.53;;
46563;SDS011;32291;52.010;4.446;2023-04-03T05:43:32;4.68;;;3.35;;
46563;SDS011;32291;52.010;4.446;2023-04-03T05:44:35;5.60;;;4.03;;
46563;SDS011;32291;52.010;4.446;2023-04-03T05:45:37;6.07;;;3.33;;
46563;SDS011;32291;52.010;4.446;2023-04-03T05:46:39;4.30;;;3.45;;
46563;SDS011;32291;52.010;4.446;2023-04-03T05:47:42;8.15;;;3.70;;
46563;SDS011;32291;52.010;4.446;2023-04-03T05:48:43;6.45;;;3.85;;
46563;SDS011;32291;52.010;4.446;2023-04-03T05:49:45;4.43;;;3.83;;
46563;SDS011;32291;52.010;4.446;2023-04-03T05:50:47;4.82;;;3.78;;
46563;SDS011;32291;52.010;4.446;2023-04-03T05:51:48;4.40;;;3.40;;
46563;SDS011;32291;52.010;4.446;2023-04-03T05:52:51;5.45;;;3.85;;
46563;SDS011;32291;52.010;4.446;2023-04-03T05:54:17;7.28;;;4.45;;
46563;SDS011;32291;52.010;4.446;2023-04-03T05:55:24;4.97;;;3.65;;
46563;SDS011;32291;52.010;4.446;2023-04-03T05:56:26;5.43;;;4.28;;
46563;SDS011;32291;52.010;4.446;2023-04-03T05:57:28;6.40;;;4.05;;
46563;SDS011;32291;52.010;4.446;2023-04-03T05:58:30;6.43;;;3.85;;
46563;SDS011;32291;52.010;4.446;2023-04-03T05:59:32;5.80;;;4.05;;
46563;SDS011;32291;52.010;4.446;2023-04-03T06:00:33;4.82;;;3.92;;
46563;SDS011;32291;52.010;4.446;2023-04-03T06:01:35;4.88;;;3.88;;
46563;SDS011;32291;52.010;4.446;2023-04-03T06:02:37;5.18;;;3.72;;
46563;SDS011;32291;52.010;4.446;2023-04-03T06:03:39;6.85;;;4.10;;
46563;SDS011;32291;52.010;4.446;2023-04-03T06:04:41;7.40;;;3.90;;
46563;SDS011;32291;52.010;4.446;2023-04-03T06:05:43;4.32;;;3.92;;
46563;SDS011;32291;52.010;4.446;2023-04-03T06:06:48;6.35;;;3.88;;
46563;SDS011;32291;52.010;4.446;2023-04-03T06:07:55;5.70;;;3.97;;
46563;SDS011;32291;52.010;4.446;2023-04-03T06:08:57;5.50;;;4.10;;
46563;SDS011;32291;52.010;4.446;2023-04-03T06:09:59;7.68;;;4.47;;
46563;SDS011;32291;52.010;4.446;2023-04-03T06:11:02;8.30;;;4.45;;
46563;SDS011;32291;52.010;4.446;2023-04-03T06:12:03;6.75;;;4.22;;
46563;SDS011;32291;52.010;4.446;2023-04-03T06:13:05;5.10;;;4.00;;
46563;SDS011;32291;52.010;4.446;2023-04-03T06:14:08;4.80;;;4.00;;
46563;SDS011;32291;52.010;4.446;2023-04-03T06:15:11;4.57;;;4.13;;
46563;SDS011;32291;52.010;4.446;2023-04-03T06:16:13;6.50;;;4.47;;
46563;SDS011;32291;52.010;4.446;2023-04-03T06:17:18;6.00;;;4.32;;
46563;SDS011;32291;52.010;4.446;2023-04-03T06:18:19;8.13;;;4.97;;
46563;SDS011;32291;52.010;4.446;2023-04-03T06:19:21;7.13;;;5.00;;
46563;SDS011;32291;52.010;4.446;2023-04-03T06:20:23;8.95;;;4.65;;
46563;SDS011;32291;52.010;4.446;2023-04-03T06:21:25;5.97;;;5.35;;
46563;SDS011;32291;52.010;4.446;2023-04-03T06:22:27;6.85;;;4.78;;
46563;SDS011;32291;52.010;4.446;2023-04-03T06:23:31;5.25;;;4.00;;
46563;SDS011;32291;52.010;4.446;2023-04-03T06:24:33;6.43;;;4.70;;